createdAt,value
2022-10-13T00:00:17.721Z,13.12
2022-10-13T00:02:44.067Z,13.10
2022-10-13T00:05:10.382Z,13.10
2022-10-13T00:07:36.773Z,13.09
2022-10-13T00:10:03.111Z,13.08
2022-10-13T00:12:29.449Z,13.05
2022-10-13T00:14:55.782Z,13.03
2022-10-13T00:17:22.138Z,12.97
2022-10-13T00:19:48.471Z,12.93
2022-10-13T00:22:14.815Z,12.90
2022-10-13T00:24:41.130Z,12.86
2022-10-13T00:27:07.500Z,12.83
2022-10-13T00:29:33.836Z,12.81
2022-10-13T00:32:00.178Z,12.79
2022-10-13T00:34:26.531Z,12.72
2022-10-13T00:36:52.861Z,12.66
2022-10-13T00:39:19.189Z,12.60
2022-10-13T00:41:45.512Z,12.60
2022-10-13T00:44:11.905Z,12.58
2022-10-13T00:46:38.223Z,12.58
2022-10-13T00:49:04.542Z,12.59
2022-10-13T00:51:30.918Z,12.58
2022-10-13T00:53:57.237Z,12.59
2022-10-13T00:56:23.580Z,12.61
2022-10-13T00:58:50.032Z,12.61
2022-10-13T01:01:16.421Z,12.56
2022-10-13T01:03:42.712Z,12.51
2022-10-13T01:06:09.098Z,12.49
2022-10-13T01:08:35.419Z,12.47
2022-10-13T01:11:01.772Z,12.47
2022-10-13T01:13:28.087Z,12.48
2022-10-13T01:15:54.436Z,12.43
2022-10-13T01:18:20.750Z,12.42
2022-10-13T01:20:47.075Z,12.40
2022-10-13T01:23:13.400Z,12.42
2022-10-13T01:25:39.764Z,12.46
2022-10-13T01:28:06.087Z,12.47
2022-10-13T01:30:32.420Z,12.43
2022-10-13T01:32:58.743Z,12.38
2022-10-13T01:35:25.068Z,12.37
2022-10-13T01:37:51.427Z,12.39
2022-10-13T01:40:17.772Z,12.36
2022-10-13T01:42:44.087Z,12.30
2022-10-13T01:45:10.425Z,12.26
2022-10-13T01:47:36.771Z,12.25
2022-10-13T01:50:03.112Z,12.27
2022-10-13T01:52:29.478Z,12.28
2022-10-13T01:54:55.821Z,12.34
2022-10-13T01:57:22.149Z,12.39
2022-10-13T01:59:48.502Z,12.41
2022-10-13T02:02:14.823Z,12.42
2022-10-13T02:04:41.166Z,12.42
2022-10-13T02:07:07.518Z,12.41
2022-10-13T02:09:33.863Z,12.39
2022-10-13T02:12:00.176Z,12.37
2022-10-13T02:14:26.530Z,12.32
2022-10-13T02:16:52.884Z,12.30
2022-10-13T02:19:19.230Z,12.31
2022-10-13T02:21:45.547Z,12.32
2022-10-13T02:24:11.936Z,12.32
2022-10-13T02:26:38.277Z,12.31
2022-10-13T02:29:04.595Z,12.30
2022-10-13T02:31:30.944Z,12.29
2022-10-13T02:33:57.281Z,12.27
2022-10-13T02:36:23.664Z,12.26
2022-10-13T02:38:49.994Z,12.22
2022-10-13T02:41:16.327Z,12.16
2022-10-13T02:43:42.657Z,12.09
2022-10-13T02:46:08.996Z,12.02
2022-10-13T02:48:35.488Z,11.95
2022-10-13T02:51:01.768Z,11.92
2022-10-13T02:53:28.090Z,11.92
2022-10-13T02:55:54.437Z,11.93
2022-10-13T02:58:20.760Z,11.92
2022-10-13T03:00:47.176Z,11.89
2022-10-13T03:03:13.439Z,11.88
2022-10-13T03:05:39.763Z,11.87
2022-10-13T03:08:06.124Z,11.90
2022-10-13T03:10:32.438Z,11.92
2022-10-13T03:12:58.794Z,11.93
2022-10-13T03:15:25.185Z,11.94
2022-10-13T03:17:51.525Z,11.94
2022-10-13T03:20:17.862Z,11.94
2022-10-13T03:22:48.806Z,11.91
2022-10-13T03:25:10.537Z,11.90
2022-10-13T03:27:36.895Z,11.91
2022-10-13T03:30:03.218Z,11.91
2022-10-13T03:32:29.544Z,11.90
2022-10-13T03:34:55.891Z,11.89
2022-10-13T03:37:22.232Z,11.88
2022-10-13T03:39:48.608Z,11.85
2022-10-13T03:42:14.947Z,11.84
2022-10-13T03:44:41.280Z,11.82
2022-10-13T03:47:07.624Z,11.82
2022-10-13T03:49:33.951Z,11.81
2022-10-13T03:52:00.294Z,11.73
2022-10-13T03:54:26.658Z,11.67
2022-10-13T03:56:52.970Z,11.63
2022-10-13T03:59:19.292Z,11.60
2022-10-13T04:01:45.667Z,11.63
2022-10-13T04:04:11.960Z,11.64
2022-10-13T04:06:38.283Z,11.62
2022-10-13T04:09:04.612Z,11.62
2022-10-13T04:11:30.959Z,11.62
2022-10-13T04:13:57.303Z,11.58
2022-10-13T04:16:23.635Z,11.55
2022-10-13T04:18:49.969Z,11.50
2022-10-13T04:21:16.306Z,11.51
2022-10-13T04:23:42.648Z,11.53
2022-10-13T04:26:08.983Z,11.56
2022-10-13T04:28:35.375Z,11.51
2022-10-13T04:31:01.666Z,11.52
2022-10-13T04:33:28.021Z,11.70
2022-10-13T04:35:54.382Z,11.91
2022-10-13T04:38:20.728Z,12.02
2022-10-13T04:40:47.068Z,12.11
2022-10-13T04:43:13.407Z,12.20
2022-10-13T04:45:39.720Z,12.26
2022-10-13T04:48:06.047Z,12.32
2022-10-13T04:50:32.441Z,12.36
2022-10-13T04:52:58.785Z,12.42
2022-10-13T04:55:25.104Z,12.48
2022-10-13T04:57:51.447Z,12.51
2022-10-13T05:00:17.788Z,12.52
2022-10-13T05:02:44.129Z,12.51
2022-10-13T05:05:10.450Z,12.53
2022-10-13T05:07:36.785Z,12.52
2022-10-13T05:10:03.124Z,12.31
2022-10-13T05:12:29.472Z,12.16
2022-10-13T05:14:55.805Z,12.08
2022-10-13T05:17:22.127Z,12.04
2022-10-13T05:19:48.514Z,11.99
2022-10-13T05:22:14.807Z,11.97
2022-10-13T05:24:41.129Z,11.96
2022-10-13T05:27:07.472Z,11.96
2022-10-13T05:29:33.793Z,11.96
2022-10-13T05:32:00.153Z,11.98
2022-10-13T05:34:26.526Z,11.98
2022-10-13T05:36:52.919Z,11.97
2022-10-13T05:39:19.258Z,11.97
2022-10-13T05:41:45.592Z,11.97
2022-10-13T05:44:11.920Z,11.96
2022-10-13T05:46:38.310Z,11.95
2022-10-13T05:49:04.648Z,11.96
2022-10-13T05:51:30.968Z,11.99
2022-10-13T05:53:57.951Z,11.99
2022-10-13T05:56:23.633Z,12.02
2022-10-13T05:58:49.971Z,12.03
2022-10-13T06:01:16.335Z,12.04
2022-10-13T06:03:42.676Z,12.07
2022-10-13T06:06:09.004Z,12.11
2022-10-13T06:08:35.404Z,12.15
2022-10-13T06:11:01.756Z,12.20
2022-10-13T06:13:28.099Z,12.21
2022-10-13T06:15:54.465Z,12.20
2022-10-13T06:18:20.798Z,12.26
2022-10-13T06:20:47.126Z,12.35
2022-10-13T06:23:13.515Z,12.45
2022-10-13T06:25:39.837Z,12.53
2022-10-13T06:28:06.159Z,12.61
2022-10-13T06:30:32.527Z,12.78
2022-10-13T06:32:58.867Z,12.99
2022-10-13T06:35:25.207Z,13.23
2022-10-13T06:37:51.550Z,13.46
2022-10-13T06:40:17.888Z,13.69
2022-10-13T06:42:44.234Z,13.82
2022-10-13T06:45:10.622Z,13.96
2022-10-13T06:47:36.936Z,14.10
2022-10-13T06:50:03.265Z,14.19
2022-10-13T06:52:29.590Z,14.25
2022-10-13T06:54:55.914Z,14.39
2022-10-13T06:57:22.253Z,14.59
2022-10-13T06:59:48.583Z,14.81
2022-10-13T07:02:14.902Z,15.03
2022-10-13T07:04:41.297Z,15.22
2022-10-13T07:07:07.616Z,15.43
2022-10-13T07:09:33.969Z,15.64
2022-10-13T07:12:00.372Z,15.87
2022-10-13T07:14:26.699Z,16.07
2022-10-13T07:16:53.019Z,16.26
2022-10-13T07:19:19.371Z,16.53
2022-10-13T07:21:45.704Z,16.74
2022-10-13T07:24:12.055Z,16.85
2022-10-13T07:26:38.394Z,16.97
2022-10-13T07:29:04.719Z,17.09
2022-10-13T07:31:31.055Z,17.32
2022-10-13T07:33:57.447Z,17.59
2022-10-13T07:36:23.783Z,17.82
2022-10-13T07:38:50.103Z,18.13
2022-10-13T07:41:16.465Z,18.35
2022-10-13T07:43:42.789Z,18.48
2022-10-13T07:46:09.115Z,18.69
2022-10-13T07:48:35.481Z,18.88
2022-10-13T07:51:01.819Z,19.18
2022-10-13T07:53:28.162Z,19.39
2022-10-13T07:55:54.503Z,19.54
2022-10-13T07:58:20.849Z,19.69
2022-10-13T08:00:47.195Z,19.83
2022-10-13T08:03:13.539Z,19.88
2022-10-13T08:05:39.905Z,20.00
2022-10-13T08:08:06.232Z,20.21
2022-10-13T08:10:32.556Z,20.45
2022-10-13T08:12:58.909Z,20.68
2022-10-13T08:15:25.251Z,20.89
2022-10-13T08:17:51.594Z,20.98
2022-10-13T08:20:17.988Z,21.11
2022-10-13T08:22:44.313Z,21.23
2022-10-13T08:25:10.639Z,21.43
2022-10-13T08:27:50.177Z,21.62
2022-10-13T08:30:03.349Z,21.71
2022-10-13T08:32:29.713Z,21.80
2022-10-13T08:34:56.151Z,21.87
2022-10-13T08:37:22.372Z,22.02
2022-10-13T08:39:48.735Z,22.19
2022-10-13T08:42:15.080Z,22.29
2022-10-13T08:45:15.703Z,22.32
2022-10-13T08:47:07.761Z,22.43
2022-10-13T08:49:34.085Z,22.54
2022-10-13T08:52:00.414Z,22.67
2022-10-13T08:54:26.759Z,22.64
2022-10-13T08:56:53.132Z,22.76
2022-10-13T08:59:19.417Z,22.84
2022-10-13T09:01:45.838Z,23.11
2022-10-13T09:04:12.130Z,23.24
2022-10-13T09:06:38.471Z,23.43
2022-10-13T09:09:04.827Z,23.66
2022-10-13T09:11:31.171Z,23.92
2022-10-13T09:13:57.507Z,24.17
2022-10-13T09:16:23.843Z,24.31
2022-10-13T09:18:50.173Z,24.40
2022-10-13T09:21:16.610Z,24.59
2022-10-13T09:23:42.952Z,24.71
2022-10-13T09:26:09.288Z,24.81
2022-10-13T09:28:35.698Z,24.93
2022-10-13T09:31:01.994Z,25.03
2022-10-13T09:33:28.335Z,25.26
2022-10-13T09:35:54.664Z,25.38
2022-10-13T09:38:21.004Z,25.55
2022-10-13T09:40:47.326Z,25.72
2022-10-13T09:43:13.694Z,25.89
2022-10-13T09:45:40.042Z,26.02
2022-10-13T09:48:06.359Z,25.92
2022-10-13T09:50:32.688Z,25.86
2022-10-13T09:52:59.008Z,26.11
2022-10-13T09:55:28.696Z,26.38
2022-10-13T09:57:51.704Z,26.54
2022-10-13T10:00:18.049Z,26.62
2022-10-13T10:02:44.411Z,26.60
2022-10-13T10:05:10.755Z,26.49
2022-10-13T10:07:37.099Z,26.61
2022-10-13T10:10:03.461Z,26.91
2022-10-13T10:12:29.801Z,27.17
2022-10-13T10:14:56.146Z,27.41
2022-10-13T10:17:22.799Z,27.69
2022-10-13T10:19:48.825Z,27.98
2022-10-13T10:22:15.170Z,28.18
2022-10-13T10:24:41.506Z,28.40
2022-10-13T10:27:07.935Z,28.45
2022-10-13T10:29:34.204Z,28.53
2022-10-13T10:32:00.546Z,28.55
2022-10-13T10:34:26.901Z,28.59
2022-10-13T10:36:53.228Z,28.59
2022-10-13T10:39:19.555Z,28.54
2022-10-13T10:41:45.903Z,28.54
2022-10-13T10:44:12.222Z,28.55
2022-10-13T10:46:38.582Z,28.29
2022-10-13T10:49:04.951Z,27.99
2022-10-13T10:51:31.300Z,27.88
2022-10-13T10:53:57.624Z,27.78
2022-10-13T10:56:23.982Z,27.88
2022-10-13T10:58:50.303Z,28.11
2022-10-13T11:01:16.689Z,28.28
2022-10-13T11:03:43.011Z,28.14
2022-10-13T11:06:09.329Z,27.88
2022-10-13T11:08:35.680Z,27.71
2022-10-13T11:11:02.042Z,27.58
2022-10-13T11:13:28.367Z,27.41
2022-10-13T11:15:54.720Z,27.45
2022-10-13T11:18:22.010Z,27.45
2022-10-13T11:20:47.390Z,27.25
2022-10-13T11:23:13.739Z,27.04
2022-10-13T11:25:40.077Z,26.89
2022-10-13T11:28:06.442Z,26.83
2022-10-13T11:30:32.786Z,26.78
2022-10-13T11:32:59.105Z,26.79
2022-10-13T11:35:25.435Z,26.77
2022-10-13T11:38:05.872Z,26.81
2022-10-13T11:40:18.216Z,26.87
2022-10-13T11:42:44.546Z,26.96
2022-10-13T11:45:10.896Z,27.07
2022-10-13T11:47:37.240Z,27.19
2022-10-13T11:50:03.569Z,27.30
2022-10-13T11:52:29.889Z,27.40
2022-10-13T11:54:56.240Z,27.52
2022-10-13T11:57:22.566Z,27.62
2022-10-13T11:59:48.937Z,27.48
2022-10-13T12:02:18.213Z,27.43
2022-10-13T12:04:46.366Z,27.46
2022-10-13T12:07:07.915Z,27.49
2022-10-13T12:09:34.238Z,27.51
2022-10-13T12:12:00.599Z,27.55
2022-10-13T12:14:26.945Z,27.55
2022-10-13T12:16:53.341Z,27.55
2022-10-13T12:19:19.603Z,27.55
2022-10-13T12:21:45.932Z,27.50
2022-10-13T12:24:12.269Z,27.39
2022-10-13T12:26:38.624Z,27.19
2022-10-13T12:29:04.960Z,27.00
2022-10-13T12:31:31.307Z,26.80
2022-10-13T12:33:57.651Z,26.62
2022-10-13T12:36:23.975Z,26.47
2022-10-13T12:38:50.318Z,26.30
2022-10-13T12:41:16.645Z,26.13
2022-10-13T12:43:42.987Z,26.04
2022-10-13T12:46:09.365Z,25.96
2022-10-13T12:48:35.697Z,25.82
2022-10-13T12:51:02.041Z,25.77
2022-10-13T12:53:28.444Z,25.75
2022-10-13T12:55:54.794Z,25.67
2022-10-13T12:58:21.137Z,25.62
2022-10-13T13:00:47.510Z,25.57
2022-10-13T13:03:13.837Z,25.49
2022-10-13T13:05:40.159Z,25.43
2022-10-13T13:08:06.491Z,25.39
2022-10-13T13:10:32.813Z,25.46
2022-10-13T13:12:59.174Z,25.53
2022-10-13T13:15:25.517Z,25.53
2022-10-13T13:17:59.433Z,25.59
2022-10-13T13:20:18.202Z,25.64
2022-10-13T13:22:44.547Z,25.57
2022-10-13T13:25:10.895Z,25.47
2022-10-13T13:27:37.265Z,25.38
2022-10-13T13:30:03.621Z,25.29
2022-10-13T13:32:29.937Z,25.20
2022-10-13T13:34:56.297Z,25.11
2022-10-13T13:37:22.766Z,25.04
2022-10-13T13:39:48.995Z,24.96
2022-10-13T13:42:15.368Z,24.83
2022-10-13T13:44:41.692Z,24.70
2022-10-13T13:47:08.042Z,24.60
2022-10-13T13:49:34.363Z,24.53
2022-10-13T13:52:00.689Z,24.44
2022-10-13T13:54:27.011Z,24.32
2022-10-13T13:56:56.580Z,24.21
2022-10-13T13:59:19.687Z,24.09
2022-10-13T14:01:46.105Z,24.01
2022-10-13T14:04:12.393Z,23.94
2022-10-13T14:06:38.769Z,23.86
2022-10-13T14:09:05.108Z,23.81
2022-10-13T14:11:31.452Z,23.72
2022-10-13T14:13:57.824Z,23.57
2022-10-13T14:16:24.168Z,23.44
2022-10-13T14:18:50.504Z,23.35
2022-10-13T14:21:16.857Z,23.30
2022-10-13T14:23:43.197Z,23.27
2022-10-13T14:26:09.534Z,23.28
2022-10-13T14:28:35.956Z,23.25
2022-10-13T14:31:02.257Z,23.18
2022-10-13T14:33:28.601Z,23.06
2022-10-13T14:35:54.940Z,22.95
2022-10-13T14:38:21.281Z,22.90
2022-10-13T14:40:47.625Z,22.86
2022-10-13T14:43:13.994Z,22.77
2022-10-13T14:45:40.333Z,22.69
2022-10-13T14:48:06.672Z,22.61
2022-10-13T14:50:33.006Z,22.55
2022-10-13T14:52:59.344Z,22.51
2022-10-13T14:55:25.692Z,22.45
2022-10-13T14:57:52.035Z,22.38
2022-10-13T15:00:18.383Z,22.30
2022-10-13T15:02:44.704Z,22.21
2022-10-13T15:05:11.051Z,22.16
2022-10-13T15:07:40.979Z,22.11
2022-10-13T15:10:06.226Z,22.05
2022-10-13T15:12:30.079Z,22.01
2022-10-13T15:14:56.406Z,21.96
2022-10-13T15:17:22.731Z,21.89
2022-10-13T15:19:49.073Z,21.83
2022-10-13T15:22:15.396Z,21.78
2022-10-13T15:24:41.723Z,21.73
2022-10-13T15:27:08.073Z,21.67
2022-10-13T15:29:34.410Z,21.62
2022-10-13T15:32:00.737Z,21.57
2022-10-13T15:34:27.114Z,21.52
2022-10-13T15:36:53.432Z,21.46
2022-10-13T15:39:19.761Z,21.41
2022-10-13T15:41:46.082Z,21.37
2022-10-13T15:44:12.412Z,21.28
2022-10-13T15:46:49.164Z,21.25
2022-10-13T15:49:05.077Z,21.22
2022-10-13T15:51:31.420Z,21.17
2022-10-13T15:53:57.767Z,21.12
2022-10-13T15:56:24.085Z,21.07
2022-10-13T15:58:50.433Z,21.03
2022-10-13T16:01:16.880Z,20.98
2022-10-13T16:03:43.119Z,20.93
2022-10-13T16:06:09.445Z,20.88
2022-10-13T16:08:35.790Z,20.82
2022-10-13T16:11:02.111Z,20.76
2022-10-13T16:13:28.456Z,20.71
2022-10-13T16:15:54.775Z,20.68
2022-10-13T16:18:21.102Z,20.64
2022-10-13T16:20:47.420Z,20.70
2022-10-13T16:23:13.741Z,20.72
2022-10-13T16:25:40.102Z,20.69
2022-10-13T16:28:06.450Z,20.68
2022-10-13T16:30:32.770Z,20.67
2022-10-13T16:32:59.127Z,20.58
2022-10-13T16:35:25.467Z,20.50
2022-10-13T16:37:51.795Z,20.44
2022-10-13T16:40:18.617Z,20.44
2022-10-13T16:42:44.967Z,20.46
2022-10-13T16:45:11.297Z,20.43
2022-10-13T16:47:37.644Z,20.35
2022-10-13T16:50:03.960Z,20.33
2022-10-13T16:52:30.308Z,20.34
2022-10-13T16:54:56.660Z,20.31
2022-10-13T16:57:23.254Z,20.29
2022-10-13T16:59:49.304Z,20.29
2022-10-13T17:02:15.703Z,20.27
2022-10-13T17:04:42.022Z,20.21
2022-10-13T17:07:08.374Z,20.17
2022-10-13T17:09:34.731Z,20.13
2022-10-13T17:12:01.049Z,20.11
2022-10-13T17:14:27.390Z,20.02
2022-10-13T17:16:57.593Z,19.96
2022-10-13T17:19:20.050Z,19.89
2022-10-13T17:21:46.375Z,19.81
2022-10-13T17:24:12.725Z,19.77
2022-10-13T17:26:39.050Z,19.78
2022-10-13T17:29:05.398Z,19.77
2022-10-13T17:31:31.758Z,19.74
2022-10-13T17:33:58.075Z,19.67
2022-10-13T17:36:24.419Z,19.64
2022-10-13T17:38:50.735Z,19.63
2022-10-13T17:41:17.061Z,19.54
2022-10-13T17:43:43.401Z,19.51
2022-10-13T17:46:34.595Z,19.48
2022-10-13T17:48:36.098Z,19.43
2022-10-13T17:51:02.442Z,19.42
2022-10-13T17:53:28.820Z,19.37
2022-10-13T17:55:55.142Z,19.33
2022-10-13T17:58:21.483Z,19.05
2022-10-13T18:01:11.955Z,18.94
2022-10-13T18:03:14.207Z,18.95
2022-10-13T18:05:40.536Z,18.99
2022-10-13T18:08:06.882Z,18.98
2022-10-13T18:10:50.890Z,18.96
2022-10-13T18:12:59.597Z,18.94
2022-10-13T18:15:25.940Z,18.91
2022-10-13T18:17:52.275Z,18.86
2022-10-13T18:20:18.650Z,18.82
2022-10-13T18:22:44.983Z,18.82
2022-10-13T18:25:11.325Z,18.81
2022-10-13T18:27:37.678Z,18.75
2022-10-13T18:30:04.020Z,18.71
2022-10-13T18:32:30.333Z,18.71
2022-10-13T18:34:56.657Z,18.68
2022-10-13T18:37:23.213Z,18.63
2022-10-13T18:39:49.343Z,18.59
2022-10-13T18:42:15.691Z,18.54
2022-10-13T18:44:42.038Z,18.53
2022-10-13T18:47:08.409Z,18.50
2022-10-13T18:49:34.753Z,18.46
2022-10-13T18:52:01.090Z,18.43
2022-10-13T18:54:27.433Z,18.41
2022-10-13T18:56:53.790Z,18.39
2022-10-13T18:59:20.131Z,18.37
2022-10-13T19:01:46.757Z,18.37
2022-10-13T19:04:13.093Z,18.35
2022-10-13T19:06:39.414Z,18.35
2022-10-13T19:09:05.785Z,18.31
2022-10-13T19:11:32.167Z,18.25
2022-10-13T19:13:58.504Z,18.21
2022-10-13T19:16:24.849Z,18.14
2022-10-13T19:18:51.174Z,18.13
2022-10-13T19:21:17.518Z,18.12
2022-10-13T19:23:43.850Z,18.10
2022-10-13T19:26:14.847Z,18.08
2022-10-13T19:28:36.606Z,18.06
2022-10-13T19:31:02.867Z,18.04
2022-10-13T19:33:29.215Z,18.01
2022-10-13T19:35:55.559Z,17.99
2022-10-13T19:38:21.935Z,17.97
2022-10-13T19:40:48.277Z,17.94
2022-10-13T19:43:14.597Z,17.86
2022-10-13T19:45:40.972Z,17.77
2022-10-13T19:48:07.300Z,17.72
2022-10-13T19:50:33.647Z,17.68
2022-10-13T19:52:59.969Z,17.65
2022-10-13T19:55:26.285Z,17.64
2022-10-13T19:57:52.633Z,17.63
2022-10-13T20:00:19.102Z,17.60
2022-10-13T20:02:45.431Z,17.58
2022-10-13T20:05:11.762Z,17.56
2022-10-13T20:07:38.132Z,17.53
2022-10-13T20:10:04.514Z,17.51
2022-10-13T20:12:30.848Z,17.46
2022-10-13T20:14:57.188Z,17.41
2022-10-13T20:17:23.859Z,17.38
2022-10-13T20:19:49.898Z,17.37
2022-10-13T20:22:16.236Z,17.31
2022-10-13T20:24:42.550Z,17.26
2022-10-13T20:27:08.900Z,17.21
2022-10-13T20:29:35.242Z,17.21
2022-10-13T20:32:01.580Z,17.20
2022-10-13T20:34:27.922Z,17.18
2022-10-13T20:36:54.264Z,17.15
2022-10-13T20:39:20.623Z,17.12
2022-10-13T20:41:46.963Z,17.10
2022-10-13T20:44:13.297Z,17.07
2022-10-13T20:46:39.642Z,17.03
2022-10-13T20:49:10.861Z,17.05
2022-10-13T20:51:32.328Z,17.05
2022-10-13T20:53:58.677Z,17.04
2022-10-13T20:56:25.012Z,17.03
2022-10-13T20:58:51.376Z,17.00
2022-10-13T21:01:17.785Z,16.94
2022-10-13T21:03:44.056Z,16.92
2022-10-13T21:06:10.450Z,16.91
2022-10-13T21:08:36.787Z,16.88
2022-10-13T21:11:03.103Z,16.86
2022-10-13T21:13:29.457Z,16.89
2022-10-13T21:15:55.775Z,16.85
2022-10-13T21:18:22.110Z,16.85
2022-10-13T21:20:48.488Z,16.86
2022-10-13T21:23:14.821Z,16.82
2022-10-13T21:25:41.140Z,16.79
2022-10-13T21:28:07.511Z,16.81
2022-10-13T21:30:33.847Z,16.79
2022-10-13T21:33:00.178Z,16.76
2022-10-13T21:35:26.518Z,16.73
2022-10-13T21:37:52.837Z,16.71
2022-10-13T21:40:19.185Z,16.67
2022-10-13T21:42:45.522Z,16.63
2022-10-13T21:45:11.844Z,16.61
2022-10-13T21:47:38.158Z,16.62
2022-10-13T21:50:04.526Z,16.61
2022-10-13T21:52:30.820Z,16.59
2022-10-13T21:54:57.145Z,16.56
2022-10-13T21:57:23.749Z,16.52
2022-10-13T21:59:49.806Z,16.48
2022-10-13T22:02:16.124Z,16.47
2022-10-13T22:04:42.449Z,16.46
2022-10-13T22:07:08.774Z,16.42
2022-10-13T22:09:35.119Z,16.38
2022-10-13T22:12:01.437Z,16.37
2022-10-13T22:14:27.779Z,16.35
2022-10-13T22:16:54.095Z,16.33
2022-10-13T22:19:20.456Z,16.33
2022-10-13T22:21:46.800Z,16.33
2022-10-13T22:24:13.119Z,16.31
2022-10-13T22:26:39.444Z,16.30
2022-10-13T22:29:05.878Z,16.29
2022-10-13T22:31:32.105Z,16.28
2022-10-13T22:33:58.453Z,16.25
2022-10-13T22:36:24.793Z,16.26
2022-10-13T22:38:51.112Z,16.25
2022-10-13T22:41:17.448Z,16.23
2022-10-13T22:43:43.790Z,16.22
2022-10-13T22:46:10.126Z,16.20
2022-10-13T22:48:40.546Z,16.17
2022-10-13T22:51:02.830Z,16.15
2022-10-13T22:53:29.153Z,16.14
2022-10-13T22:55:55.501Z,16.11
2022-10-13T22:58:21.845Z,16.12
2022-10-13T23:00:48.171Z,16.11
2022-10-13T23:03:14.552Z,16.09
2022-10-13T23:05:40.854Z,16.08
2022-10-13T23:08:07.195Z,16.05
2022-10-13T23:10:33.511Z,16.03
2022-10-13T23:12:59.832Z,16.01
2022-10-13T23:15:26.170Z,16.00
2022-10-13T23:17:52.492Z,16.00
2022-10-13T23:20:18.830Z,15.98
2022-10-13T23:22:45.178Z,15.98
2022-10-13T23:25:11.499Z,15.99
2022-10-13T23:27:37.844Z,15.97
2022-10-13T23:30:04.158Z,15.96
2022-10-13T23:32:30.482Z,15.94
2022-10-13T23:34:56.839Z,15.92
2022-10-13T23:37:23.570Z,15.92
2022-10-13T23:39:49.517Z,15.89
2022-10-13T23:42:15.844Z,15.85
2022-10-13T23:44:42.180Z,15.81
2022-10-13T23:47:08.504Z,15.81
2022-10-13T23:49:34.845Z,15.80
2022-10-13T23:52:01.185Z,15.79
2022-10-13T23:54:27.525Z,15.76
2022-10-13T23:56:53.849Z,15.69
2022-10-13T23:59:20.193Z,15.69
